sensor_id;sensor_type;location;lat;lon;timestamp;temperature;humidity
17948;DHT22;9099;47.958;11.366;2024-02-26T00:00:38;4.70;99.90
17948;DHT22;9099;47.958;11.366;2024-02-26T00:03:06;4.70;99.90
17948;DHT22;9099;47.958;11.366;2024-02-26T00:05:34;4.70;99.90
17948;DHT22;9099;47.958;11.366;2024-02-26T00:08:04;4.80;99.90
17948;DHT22;9099;47.958;11.366;2024-02-26T00:10:31;4.80;99.90
17948;DHT22;9099;47.958;11.366;2024-02-26T00:12:58;4.80;99.90
17948;DHT22;9099;47.958;11.366;2024-02-26T00:15:25;4.80;99.90
17948;DHT22;9099;47.958;11.366;2024-02-26T00:17:53;4.80;99.90
17948;DHT22;9099;47.958;11.366;2024-02-26T00:20:20;4.80;99.90
17948;DHT22;9099;47.958;11.366;2024-02-26T00:22:48;4.80;99.90
17948;DHT22;9099;47.958;11.366;2024-02-26T00:25:15;4.80;99.90
17948;DHT22;9099;47.958;11.366;2024-02-26T00:27:42;4.80;99.90
17948;DHT22;9099;47.958;11.366;2024-02-26T00:30:10;4.80;99.90
17948;DHT22;9099;47.958;11.366;2024-02-26T00:32:37;4.80;99.90
17948;DHT22;9099;47.958;11.366;2024-02-26T00:35:05;4.90;99.90
17948;DHT22;9099;47.958;11.366;2024-02-26T00:37:32;4.90;99.90
17948;DHT22;9099;47.958;11.366;2024-02-26T00:40:00;5.00;99.90
17948;DHT22;9099;47.958;11.366;2024-02-26T00:42:27;4.90;99.90
17948;DHT22;9099;47.958;11.366;2024-02-26T00:44:54;4.90;99.90
17948;DHT22;9099;47.958;11.366;2024-02-26T00:47:21;5.00;99.90
17948;DHT22;9099;47.958;11.366;2024-02-26T00:49:48;5.00;99.90
17948;DHT22;9099;47.958;11.366;2024-02-26T00:52:15;5.00;99.90
17948;DHT22;9099;47.958;11.366;2024-02-26T00:54:42;5.00;99.90
17948;DHT22;9099;47.958;11.366;2024-02-26T00:57:10;5.00;99.90
17948;DHT22;9099;47.958;11.366;2024-02-26T00:59:37;5.00;99.90
17948;DHT22;9099;47.958;11.366;2024-02-26T01:02:04;5.00;99.90
17948;DHT22;9099;47.958;11.366;2024-02-26T01:04:32;5.00;99.90
17948;DHT22;9099;47.958;11.366;2024-02-26T01:06:59;5.00;99.90
17948;DHT22;9099;47.958;11.366;2024-02-26T01:09:26;5.00;99.90
17948;DHT22;9099;47.958;11.366;2024-02-26T01:11:53;5.00;99.90
17948;DHT22;9099;47.958;11.366;2024-02-26T01:14:22;4.90;99.90
17948;DHT22;9099;47.958;11.366;2024-02-26T01:16:49;4.90;99.90
17948;DHT22;9099;47.958;11.366;2024-02-26T01:19:16;5.00;99.90
17948;DHT22;9099;47.958;11.366;2024-02-26T01:21:42;4.90;99.90
17948;DHT22;9099;47.958;11.366;2024-02-26T01:24:09;4.90;99.90
17948;DHT22;9099;47.958;11.366;2024-02-26T01:26:36;4.90;99.90
17948;DHT22;9099;47.958;11.366;2024-02-26T01:29:03;4.90;99.90
17948;DHT22;9099;47.958;11.366;2024-02-26T01:31:32;5.00;99.90
17948;DHT22;9099;47.958;11.366;2024-02-26T01:33:58;5.00;99.90
17948;DHT22;9099;47.958;11.366;2024-02-26T01:36:25;5.10;99.90
17948;DHT22;9099;47.958;11.366;2024-02-26T01:38:52;5.10;99.90
17948;DHT22;9099;47.958;11.366;2024-02-26T01:41:19;5.10;99.90
17948;DHT22;9099;47.958;11.366;2024-02-26T01:43:46;5.10;99.90
17948;DHT22;9099;47.958;11.366;2024-02-26T01:46:14;5.10;99.90
17948;DHT22;9099;47.958;11.366;2024-02-26T01:48:45;5.10;99.90
17948;DHT22;9099;47.958;11.366;2024-02-26T01:51:16;5.10;99.90
17948;DHT22;9099;47.958;11.366;2024-02-26T01:53:44;5.10;99.90
17948;DHT22;9099;47.958;11.366;2024-02-26T01:56:11;5.10;99.90
17948;DHT22;9099;47.958;11.366;2024-02-26T01:58:39;5.10;99.90
17948;DHT22;9099;47.958;11.366;2024-02-26T02:01:06;5.10;99.90
17948;DHT22;9099;47.958;11.366;2024-02-26T02:03:33;5.10;99.90
17948;DHT22;9099;47.958;11.366;2024-02-26T02:06:02;5.00;99.90
17948;DHT22;9099;47.958;11.366;2024-02-26T02:08:30;5.00;99.90
17948;DHT22;9099;47.958;11.366;2024-02-26T02:10:57;5.00;99.90
17948;DHT22;9099;47.958;11.366;2024-02-26T02:13:24;5.00;99.90
17948;DHT22;9099;47.958;11.366;2024-02-26T02:15:50;5.00;99.90
17948;DHT22;9099;47.958;11.366;2024-02-26T02:18:18;5.00;99.90
17948;DHT22;9099;47.958;11.366;2024-02-26T02:20:47;5.00;99.90
17948;DHT22;9099;47.958;11.366;2024-02-26T02:23:14;5.10;99.90
17948;DHT22;9099;47.958;11.366;2024-02-26T02:25:41;5.10;99.90
17948;DHT22;9099;47.958;11.366;2024-02-26T02:28:07;5.10;99.90
17948;DHT22;9099;47.958;11.366;2024-02-26T02:30:35;5.10;99.90
17948;DHT22;9099;47.958;11.366;2024-02-26T02:33:02;5.00;99.90
17948;DHT22;9099;47.958;11.366;2024-02-26T02:35:29;5.00;99.90
17948;DHT22;9099;47.958;11.366;2024-02-26T02:37:57;5.00;99.90
17948;DHT22;9099;47.958;11.366;2024-02-26T02:40:24;5.10;99.90
17948;DHT22;9099;47.958;11.366;2024-02-26T02:42:51;5.00;99.90
17948;DHT22;9099;47.958;11.366;2024-02-26T02:45:18;5.10;99.90
17948;DHT22;9099;47.958;11.366;2024-02-26T02:47:45;5.10;99.90
17948;DHT22;9099;47.958;11.366;2024-02-26T02:50:12;5.10;99.90
17948;DHT22;9099;47.958;11.366;2024-02-26T02:52:39;5.10;99.90
17948;DHT22;9099;47.958;11.366;2024-02-26T02:55:08;5.10;99.90
17948;DHT22;9099;47.958;11.366;2024-02-26T02:57:35;5.20;99.90
17948;DHT22;9099;47.958;11.366;2024-02-26T03:00:07;5.20;99.90
17948;DHT22;9099;47.958;11.366;2024-02-26T03:02:34;5.20;99.90
17948;DHT22;9099;47.958;11.366;2024-02-26T03:05:02;5.20;99.90
17948;DHT22;9099;47.958;11.366;2024-02-26T03:07:29;5.20;99.90
17948;DHT22;9099;47.958;11.366;2024-02-26T03:09:56;5.20;99.90
17948;DHT22;9099;47.958;11.366;2024-02-26T03:12:25;5.30;99.90
17948;DHT22;9099;47.958;11.366;2024-02-26T03:14:53;5.30;99.90
17948;DHT22;9099;47.958;11.366;2024-02-26T03:17:21;5.30;99.90
17948;DHT22;9099;47.958;11.366;2024-02-26T03:19:50;5.40;99.90
17948;DHT22;9099;47.958;11.366;2024-02-26T03:22:19;5.50;99.90
17948;DHT22;9099;47.958;11.366;2024-02-26T03:24:46;5.50;99.90
17948;DHT22;9099;47.958;11.366;2024-02-26T03:27:13;5.50;99.90
17948;DHT22;9099;47.958;11.366;2024-02-26T03:29:41;5.50;99.90
17948;DHT22;9099;47.958;11.366;2024-02-26T03:32:08;5.50;99.90
17948;DHT22;9099;47.958;11.366;2024-02-26T03:34:35;5.50;99.90
17948;DHT22;9099;47.958;11.366;2024-02-26T03:37:04;5.60;99.90
17948;DHT22;9099;47.958;11.366;2024-02-26T03:39:32;5.60;99.90
17948;DHT22;9099;47.958;11.366;2024-02-26T03:41:59;5.60;99.90
17948;DHT22;9099;47.958;11.366;2024-02-26T03:44:25;5.60;99.90
17948;DHT22;9099;47.958;11.366;2024-02-26T03:46:54;5.50;99.90
17948;DHT22;9099;47.958;11.366;2024-02-26T03:49:21;5.50;99.90
17948;DHT22;9099;47.958;11.366;2024-02-26T03:51:48;5.40;99.90
17948;DHT22;9099;47.958;11.366;2024-02-26T03:54:15;5.40;99.90
17948;DHT22;9099;47.958;11.366;2024-02-26T03:56:42;5.40;99.90
17948;DHT22;9099;47.958;11.366;2024-02-26T03:59:09;5.40;99.90
17948;DHT22;9099;47.958;11.366;2024-02-26T04:01:36;5.30;99.90
17948;DHT22;9099;47.958;11.366;2024-02-26T04:04:04;5.30;99.90
17948;DHT22;9099;47.958;11.366;2024-02-26T04:06:31;5.20;99.90
17948;DHT22;9099;47.958;11.366;2024-02-26T04:08:58;5.10;99.90
17948;DHT22;9099;47.958;11.366;2024-02-26T04:11:25;5.10;99.90
17948;DHT22;9099;47.958;11.366;2024-02-26T04:13:52;5.10;99.90
17948;DHT22;9099;47.958;11.366;2024-02-26T04:16:19;5.10;99.90
17948;DHT22;9099;47.958;11.366;2024-02-26T04:18:46;5.10;99.90
17948;DHT22;9099;47.958;11.366;2024-02-26T04:21:14;5.10;99.90
17948;DHT22;9099;47.958;11.366;2024-02-26T04:23:41;5.00;99.90
17948;DHT22;9099;47.958;11.366;2024-02-26T04:26:08;5.00;99.90
17948;DHT22;9099;47.958;11.366;2024-02-26T04:28:35;5.00;99.90
17948;DHT22;9099;47.958;11.366;2024-02-26T04:31:02;4.90;99.90
17948;DHT22;9099;47.958;11.366;2024-02-26T04:33:29;4.90;99.90
17948;DHT22;9099;47.958;11.366;2024-02-26T04:35:56;4.90;99.90
17948;DHT22;9099;47.958;11.366;2024-02-26T04:38:24;4.80;99.90
17948;DHT22;9099;47.958;11.366;2024-02-26T04:40:51;4.80;99.90
17948;DHT22;9099;47.958;11.366;2024-02-26T04:43:19;4.80;99.90
17948;DHT22;9099;47.958;11.366;2024-02-26T04:45:46;4.80;99.90
17948;DHT22;9099;47.958;11.366;2024-02-26T04:48:13;4.70;99.90
17948;DHT22;9099;47.958;11.366;2024-02-26T04:50:40;4.70;99.90
17948;DHT22;9099;47.958;11.366;2024-02-26T04:53:07;4.70;99.90
17948;DHT22;9099;47.958;11.366;2024-02-26T04:55:35;4.60;99.90
17948;DHT22;9099;47.958;11.366;2024-02-26T04:58:02;4.50;99.90
17948;DHT22;9099;47.958;11.366;2024-02-26T05:00:29;4.50;99.90
17948;DHT22;9099;47.958;11.366;2024-02-26T05:02:56;4.50;99.90
17948;DHT22;9099;47.958;11.366;2024-02-26T05:05:23;4.50;99.90
17948;DHT22;9099;47.958;11.366;2024-02-26T05:07:50;4.50;99.90
17948;DHT22;9099;47.958;11.366;2024-02-26T05:10:17;4.50;99.90
17948;DHT22;9099;47.958;11.366;2024-02-26T05:12:45;4.60;99.90
17948;DHT22;9099;47.958;11.366;2024-02-26T05:15:12;4.60;99.90
17948;DHT22;9099;47.958;11.366;2024-02-26T05:17:44;4.60;99.90
17948;DHT22;9099;47.958;11.366;2024-02-26T05:20:11;4.70;99.90
17948;DHT22;9099;47.958;11.366;2024-02-26T05:22:38;4.70;99.90
17948;DHT22;9099;47.958;11.366;2024-02-26T05:25:05;4.80;99.90
17948;DHT22;9099;47.958;11.366;2024-02-26T05:27:32;4.80;99.90
17948;DHT22;9099;47.958;11.366;2024-02-26T05:30:00;4.90;99.90
17948;DHT22;9099;47.958;11.366;2024-02-26T05:32:27;5.00;99.90
17948;DHT22;9099;47.958;11.366;2024-02-26T05:34:54;5.10;99.90
17948;DHT22;9099;47.958;11.366;2024-02-26T05:37:21;5.10;99.90
17948;DHT22;9099;47.958;11.366;2024-02-26T05:39:48;5.10;99.90
17948;DHT22;9099;47.958;11.366;2024-02-26T05:42:15;5.10;99.90
17948;DHT22;9099;47.958;11.366;2024-02-26T05:44:41;5.10;99.90
17948;DHT22;9099;47.958;11.366;2024-02-26T05:47:10;5.10;99.90
17948;DHT22;9099;47.958;11.366;2024-02-26T05:49:37;5.10;99.90
17948;DHT22;9099;47.958;11.366;2024-02-26T05:52:04;5.10;99.90
17948;DHT22;9099;47.958;11.366;2024-02-26T05:54:31;5.10;99.90
17948;DHT22;9099;47.958;11.366;2024-02-26T05:56:58;5.10;99.90
17948;DHT22;9099;47.958;11.366;2024-02-26T05:59:25;5.20;99.90
17948;DHT22;9099;47.958;11.366;2024-02-26T06:01:52;5.30;99.90
17948;DHT22;9099;47.958;11.366;2024-02-26T06:04:20;5.30;99.90
17948;DHT22;9099;47.958;11.366;2024-02-26T06:06:47;5.40;99.90
17948;DHT22;9099;47.958;11.366;2024-02-26T06:09:15;5.40;99.90
17948;DHT22;9099;47.958;11.366;2024-02-26T06:11:42;5.50;99.90
17948;DHT22;9099;47.958;11.366;2024-02-26T06:14:09;5.50;99.90
17948;DHT22;9099;47.958;11.366;2024-02-26T06:16:38;5.60;99.90
17948;DHT22;9099;47.958;11.366;2024-02-26T06:19:05;5.70;99.90
17948;DHT22;9099;47.958;11.366;2024-02-26T06:21:33;5.80;99.90
17948;DHT22;9099;47.958;11.366;2024-02-26T06:24:01;5.90;99.90
17948;DHT22;9099;47.958;11.366;2024-02-26T06:26:28;6.10;99.90
17948;DHT22;9099;47.958;11.366;2024-02-26T06:28:55;6.20;99.90
17948;DHT22;9099;47.958;11.366;2024-02-26T06:31:22;6.30;99.90
17948;DHT22;9099;47.958;11.366;2024-02-26T06:33:50;6.40;99.90
17948;DHT22;9099;47.958;11.366;2024-02-26T06:36:16;6.40;99.90
17948;DHT22;9099;47.958;11.366;2024-02-26T06:38:45;6.50;99.90
17948;DHT22;9099;47.958;11.366;2024-02-26T06:41:11;6.50;99.90
17948;DHT22;9099;47.958;11.366;2024-02-26T06:43:38;6.50;99.90
17948;DHT22;9099;47.958;11.366;2024-02-26T06:46:05;6.60;99.90
17948;DHT22;9099;47.958;11.366;2024-02-26T06:48:32;6.70;99.90
17948;DHT22;9099;47.958;11.366;2024-02-26T06:50:59;6.70;99.90
17948;DHT22;9099;47.958;11.366;2024-02-26T06:53:26;6.70;99.90
17948;DHT22;9099;47.958;11.366;2024-02-26T06:55:54;6.50;99.90
17948;DHT22;9099;47.958;11.366;2024-02-26T06:58:21;6.40;99.90
17948;DHT22;9099;47.958;11.366;2024-02-26T07:00:48;6.40;99.90
17948;DHT22;9099;47.958;11.366;2024-02-26T07:03:15;6.40;99.90
17948;DHT22;9099;47.958;11.366;2024-02-26T07:05:42;6.40;99.90
17948;DHT22;9099;47.958;11.366;2024-02-26T07:08:10;6.40;99.90
17948;DHT22;9099;47.958;11.366;2024-02-26T07:10:39;6.40;99.90
17948;DHT22;9099;47.958;11.366;2024-02-26T07:13:07;6.40;99.90
17948;DHT22;9099;47.958;11.366;2024-02-26T07:15:34;6.50;99.90
17948;DHT22;9099;47.958;11.366;2024-02-26T07:18:01;6.60;99.90
17948;DHT22;9099;47.958;11.366;2024-02-26T07:20:29;6.60;99.90
17948;DHT22;9099;47.958;11.366;2024-02-26T07:22:58;6.70;99.90
17948;DHT22;9099;47.958;11.366;2024-02-26T07:25:25;6.80;99.90
17948;DHT22;9099;47.958;11.366;2024-02-26T07:27:52;6.80;99.90
17948;DHT22;9099;47.958;11.366;2024-02-26T07:30:21;6.90;99.90
17948;DHT22;9099;47.958;11.366;2024-02-26T07:32:48;7.00;99.90
17948;DHT22;9099;47.958;11.366;2024-02-26T07:35:15;7.00;99.90
17948;DHT22;9099;47.958;11.366;2024-02-26T07:37:43;7.10;99.90
17948;DHT22;9099;47.958;11.366;2024-02-26T07:40:10;7.20;99.90
17948;DHT22;9099;47.958;11.366;2024-02-26T07:42:37;7.30;99.90
17948;DHT22;9099;47.958;11.366;2024-02-26T07:45:05;7.40;99.90
17948;DHT22;9099;47.958;11.366;2024-02-26T07:47:34;7.50;99.90
17948;DHT22;9099;47.958;11.366;2024-02-26T07:50:01;7.50;99.90
17948;DHT22;9099;47.958;11.366;2024-02-26T07:52:28;7.60;99.90
17948;DHT22;9099;47.958;11.366;2024-02-26T07:54:55;7.60;99.90
17948;DHT22;9099;47.958;11.366;2024-02-26T07:57:22;7.60;99.90
17948;DHT22;9099;47.958;11.366;2024-02-26T07:59:49;7.60;99.90
17948;DHT22;9099;47.958;11.366;2024-02-26T08:02:16;7.70;99.90
17948;DHT22;9099;47.958;11.366;2024-02-26T08:04:44;7.80;99.90
17948;DHT22;9099;47.958;11.366;2024-02-26T08:07:11;7.90;99.90
17948;DHT22;9099;47.958;11.366;2024-02-26T08:09:38;8.10;99.90
17948;DHT22;9099;47.958;11.366;2024-02-26T08:12:06;8.20;99.90
17948;DHT22;9099;47.958;11.366;2024-02-26T08:14:33;8.30;99.90
17948;DHT22;9099;47.958;11.366;2024-02-26T08:17:00;8.30;99.90
17948;DHT22;9099;47.958;11.366;2024-02-26T08:19:27;8.40;99.90
17948;DHT22;9099;47.958;11.366;2024-02-26T08:21:55;8.40;99.90
17948;DHT22;9099;47.958;11.366;2024-02-26T08:24:23;8.60;99.90
17948;DHT22;9099;47.958;11.366;2024-02-26T08:26:50;8.70;99.90
17948;DHT22;9099;47.958;11.366;2024-02-26T08:29:16;8.90;99.90
17948;DHT22;9099;47.958;11.366;2024-02-26T08:31:43;9.10;99.90
17948;DHT22;9099;47.958;11.366;2024-02-26T08:34:10;9.20;99.90
17948;DHT22;9099;47.958;11.366;2024-02-26T08:36:37;9.30;99.90
17948;DHT22;9099;47.958;11.366;2024-02-26T08:39:06;9.50;99.90
17948;DHT22;9099;47.958;11.366;2024-02-26T08:41:34;9.50;99.90
17948;DHT22;9099;47.958;11.366;2024-02-26T08:44:01;9.60;99.90
17948;DHT22;9099;47.958;11.366;2024-02-26T08:46:28;9.60;99.90
17948;DHT22;9099;47.958;11.366;2024-02-26T08:48:55;9.70;99.90
17948;DHT22;9099;47.958;11.366;2024-02-26T08:51:22;9.70;99.90
17948;DHT22;9099;47.958;11.366;2024-02-26T08:53:49;9.70;99.90
17948;DHT22;9099;47.958;11.366;2024-02-26T08:56:18;9.70;99.90
17948;DHT22;9099;47.958;11.366;2024-02-26T08:58:45;9.70;99.90
17948;DHT22;9099;47.958;11.366;2024-02-26T09:01:14;9.80;99.90
17948;DHT22;9099;47.958;11.366;2024-02-26T09:03:41;9.80;99.90
17948;DHT22;9099;47.958;11.366;2024-02-26T09:06:08;9.80;99.90
17948;DHT22;9099;47.958;11.366;2024-02-26T09:08:37;9.70;99.90
17948;DHT22;9099;47.958;11.366;2024-02-26T09:11:04;9.70;99.90
17948;DHT22;9099;47.958;11.366;2024-02-26T09:13:33;9.80;99.90
17948;DHT22;9099;47.958;11.366;2024-02-26T09:15:59;9.80;99.90
17948;DHT22;9099;47.958;11.366;2024-02-26T09:18:26;9.90;99.90
17948;DHT22;9099;47.958;11.366;2024-02-26T09:20:54;10.00;99.90
17948;DHT22;9099;47.958;11.366;2024-02-26T09:23:21;10.10;99.90
17948;DHT22;9099;47.958;11.366;2024-02-26T09:25:48;10.20;99.90
17948;DHT22;9099;47.958;11.366;2024-02-26T09:28:15;10.30;99.90
17948;DHT22;9099;47.958;11.366;2024-02-26T09:30:44;10.40;99.90
17948;DHT22;9099;47.958;11.366;2024-02-26T09:33:10;10.70;99.90
17948;DHT22;9099;47.958;11.366;2024-02-26T09:35:38;10.90;99.90
17948;DHT22;9099;47.958;11.366;2024-02-26T09:38:05;11.00;99.90
17948;DHT22;9099;47.958;11.366;2024-02-26T09:40:31;11.20;99.90
17948;DHT22;9099;47.958;11.366;2024-02-26T09:42:59;11.30;99.90
17948;DHT22;9099;47.958;11.366;2024-02-26T09:45:28;11.40;99.90
17948;DHT22;9099;47.958;11.366;2024-02-26T09:47:57;11.50;99.90
17948;DHT22;9099;47.958;11.366;2024-02-26T09:50:24;11.50;99.90
17948;DHT22;9099;47.958;11.366;2024-02-26T09:52:51;11.50;99.90
17948;DHT22;9099;47.958;11.366;2024-02-26T09:55:19;11.60;99.90
17948;DHT22;9099;47.958;11.366;2024-02-26T09:57:46;11.70;99.90
17948;DHT22;9099;47.958;11.366;2024-02-26T10:00:18;11.70;99.90
17948;DHT22;9099;47.958;11.366;2024-02-26T10:02:46;11.60;99.90
17948;DHT22;9099;47.958;11.366;2024-02-26T10:05:16;11.80;99.90
17948;DHT22;9099;47.958;11.366;2024-02-26T10:07:44;11.90;99.90
17948;DHT22;9099;47.958;11.366;2024-02-26T10:10:12;12.20;99.90
17948;DHT22;9099;47.958;11.366;2024-02-26T10:12:39;12.50;99.90
17948;DHT22;9099;47.958;11.366;2024-02-26T10:15:07;12.80;99.90
17948;DHT22;9099;47.958;11.366;2024-02-26T10:17:34;12.90;99.90
17948;DHT22;9099;47.958;11.366;2024-02-26T10:20:21;13.20;99.90
17948;DHT22;9099;47.958;11.366;2024-02-26T10:22:49;13.50;99.90
17948;DHT22;9099;47.958;11.366;2024-02-26T10:25:18;13.40;99.90
17948;DHT22;9099;47.958;11.366;2024-02-26T10:27:45;13.30;99.90
17948;DHT22;9099;47.958;11.366;2024-02-26T10:30:16;13.30;99.90
17948;DHT22;9099;47.958;11.366;2024-02-26T10:36:08;13.20;99.90
17948;DHT22;9099;47.958;11.366;2024-02-26T10:38:36;13.00;99.90
17948;DHT22;9099;47.958;11.366;2024-02-26T10:41:04;13.20;99.90
17948;DHT22;9099;47.958;11.366;2024-02-26T10:43:31;13.40;99.90
17948;DHT22;9099;47.958;11.366;2024-02-26T10:45:58;13.60;99.90
17948;DHT22;9099;47.958;11.366;2024-02-26T10:48:25;13.60;99.90
17948;DHT22;9099;47.958;11.366;2024-02-26T10:50:52;13.80;99.90
17948;DHT22;9099;47.958;11.366;2024-02-26T10:53:22;14.10;99.90
17948;DHT22;9099;47.958;11.366;2024-02-26T10:55:54;14.20;99.90
17948;DHT22;9099;47.958;11.366;2024-02-26T10:58:22;14.30;99.90
17948;DHT22;9099;47.958;11.366;2024-02-26T11:00:51;14.60;99.90
17948;DHT22;9099;47.958;11.366;2024-02-26T11:03:18;15.00;99.90
17948;DHT22;9099;47.958;11.366;2024-02-26T11:05:47;15.50;99.90
17948;DHT22;9099;47.958;11.366;2024-02-26T11:08:15;16.10;99.90
17948;DHT22;9099;47.958;11.366;2024-02-26T11:10:44;16.20;99.90
17948;DHT22;9099;47.958;11.366;2024-02-26T11:13:16;15.80;99.90
17948;DHT22;9099;47.958;11.366;2024-02-26T11:15:45;15.70;99.90
17948;DHT22;9099;47.958;11.366;2024-02-26T11:18:14;15.90;99.90
17948;DHT22;9099;47.958;11.366;2024-02-26T11:20:42;16.30;99.90
17948;DHT22;9099;47.958;11.366;2024-02-26T11:23:12;16.70;99.90
17948;DHT22;9099;47.958;11.366;2024-02-26T11:25:43;17.10;99.90
17948;DHT22;9099;47.958;11.366;2024-02-26T11:28:13;17.90;99.90
17948;DHT22;9099;47.958;11.366;2024-02-26T11:30:47;18.10;99.90
17948;DHT22;9099;47.958;11.366;2024-02-26T11:33:18;18.00;99.90
17948;DHT22;9099;47.958;11.366;2024-02-26T11:35:45;18.00;99.90
17948;DHT22;9099;47.958;11.366;2024-02-26T11:38:19;18.00;99.90
17948;DHT22;9099;47.958;11.366;2024-02-26T11:40:48;18.10;99.90
17948;DHT22;9099;47.958;11.366;2024-02-26T11:43:16;18.20;99.90
17948;DHT22;9099;47.958;11.366;2024-02-26T11:45:50;18.10;99.90
17948;DHT22;9099;47.958;11.366;2024-02-26T11:48:22;18.10;99.90
17948;DHT22;9099;47.958;11.366;2024-02-26T11:50:51;18.00;99.90
17948;DHT22;9099;47.958;11.366;2024-02-26T11:53:25;17.80;99.90
17948;DHT22;9099;47.958;11.366;2024-02-26T11:56:22;17.60;99.90
17948;DHT22;9099;47.958;11.366;2024-02-26T11:58:56;17.40;99.90
17948;DHT22;9099;47.958;11.366;2024-02-26T12:01:39;17.10;99.90
17948;DHT22;9099;47.958;11.366;2024-02-26T12:04:07;17.30;99.90
17948;DHT22;9099;47.958;11.366;2024-02-26T12:06:49;17.30;99.90
17948;DHT22;9099;47.958;11.366;2024-02-26T12:09:36;17.00;99.90
17948;DHT22;9099;47.958;11.366;2024-02-26T12:12:06;17.00;99.90
17948;DHT22;9099;47.958;11.366;2024-02-26T12:14:37;17.00;99.90
17948;DHT22;9099;47.958;11.366;2024-02-26T12:17:04;17.30;99.90
17948;DHT22;9099;47.958;11.366;2024-02-26T12:19:32;17.60;99.90
17948;DHT22;9099;47.958;11.366;2024-02-26T12:22:00;17.70;99.90
17948;DHT22;9099;47.958;11.366;2024-02-26T12:24:27;17.40;99.90
17948;DHT22;9099;47.958;11.366;2024-02-26T12:26:54;17.20;99.90
17948;DHT22;9099;47.958;11.366;2024-02-26T12:29:23;16.90;99.90
17948;DHT22;9099;47.958;11.366;2024-02-26T12:31:50;16.40;99.90
17948;DHT22;9099;47.958;11.366;2024-02-26T12:34:17;16.20;99.90
17948;DHT22;9099;47.958;11.366;2024-02-26T12:36:45;16.10;99.90
17948;DHT22;9099;47.958;11.366;2024-02-26T12:39:12;16.30;99.90
17948;DHT22;9099;47.958;11.366;2024-02-26T12:41:40;16.20;99.90
17948;DHT22;9099;47.958;11.366;2024-02-26T12:44:08;16.30;99.90
17948;DHT22;9099;47.958;11.366;2024-02-26T12:46:36;16.40;99.90
17948;DHT22;9099;47.958;11.366;2024-02-26T12:49:03;16.30;99.90
17948;DHT22;9099;47.958;11.366;2024-02-26T12:51:32;16.30;99.90
17948;DHT22;9099;47.958;11.366;2024-02-26T12:53:59;16.70;99.90
17948;DHT22;9099;47.958;11.366;2024-02-26T12:56:27;17.10;99.90
17948;DHT22;9099;47.958;11.366;2024-02-26T12:58:55;17.30;99.90
17948;DHT22;9099;47.958;11.366;2024-02-26T13:01:24;17.00;99.90
17948;DHT22;9099;47.958;11.366;2024-02-26T13:03:53;17.00;99.90
17948;DHT22;9099;47.958;11.366;2024-02-26T13:06:20;17.30;99.90
17948;DHT22;9099;47.958;11.366;2024-02-26T13:08:48;17.60;99.90
17948;DHT22;9099;47.958;11.366;2024-02-26T13:11:15;17.60;99.60
17948;DHT22;9099;47.958;11.366;2024-02-26T13:13:42;17.10;99.80
17948;DHT22;9099;47.958;11.366;2024-02-26T13:16:13;16.70;99.90
17948;DHT22;9099;47.958;11.366;2024-02-26T13:18:41;16.50;99.90
17948;DHT22;9099;47.958;11.366;2024-02-26T13:21:12;16.10;99.90
17948;DHT22;9099;47.958;11.366;2024-02-26T13:23:41;16.00;99.90
17948;DHT22;9099;47.958;11.366;2024-02-26T13:26:09;15.90;99.90
17948;DHT22;9099;47.958;11.366;2024-02-26T13:28:38;15.60;99.90
17948;DHT22;9099;47.958;11.366;2024-02-26T13:31:05;15.60;99.90
17948;DHT22;9099;47.958;11.366;2024-02-26T13:33:34;15.50;99.90
17948;DHT22;9099;47.958;11.366;2024-02-26T13:36:02;15.50;99.90
17948;DHT22;9099;47.958;11.366;2024-02-26T13:38:31;15.50;99.90
17948;DHT22;9099;47.958;11.366;2024-02-26T13:41:00;15.40;99.90
17948;DHT22;9099;47.958;11.366;2024-02-26T13:43:27;15.20;99.90
17948;DHT22;9099;47.958;11.366;2024-02-26T13:45:54;15.00;99.90
17948;DHT22;9099;47.958;11.366;2024-02-26T13:48:21;15.00;99.90
17948;DHT22;9099;47.958;11.366;2024-02-26T13:50:48;15.00;99.90
17948;DHT22;9099;47.958;11.366;2024-02-26T13:53:15;15.00;99.90
17948;DHT22;9099;47.958;11.366;2024-02-26T13:55:44;14.80;99.90
17948;DHT22;9099;47.958;11.366;2024-02-26T13:58:12;14.80;99.90
17948;DHT22;9099;47.958;11.366;2024-02-26T14:00:40;14.70;99.90
17948;DHT22;9099;47.958;11.366;2024-02-26T14:03:07;14.70;99.90
17948;DHT22;9099;47.958;11.366;2024-02-26T14:05:34;14.60;99.90
17948;DHT22;9099;47.958;11.366;2024-02-26T14:08:01;14.70;99.90
17948;DHT22;9099;47.958;11.366;2024-02-26T14:10:28;14.60;99.90
17948;DHT22;9099;47.958;11.366;2024-02-26T14:12:57;14.60;99.90
17948;DHT22;9099;47.958;11.366;2024-02-26T14:15:24;14.50;99.90
17948;DHT22;9099;47.958;11.366;2024-02-26T14:17:51;14.30;99.90
17948;DHT22;9099;47.958;11.366;2024-02-26T14:20:25;14.20;99.90
17948;DHT22;9099;47.958;11.366;2024-02-26T14:22:52;14.00;99.90
17948;DHT22;9099;47.958;11.366;2024-02-26T14:25:19;13.80;99.90
17948;DHT22;9099;47.958;11.366;2024-02-26T14:27:47;13.70;99.90
17948;DHT22;9099;47.958;11.366;2024-02-26T14:30:15;13.60;99.90
17948;DHT22;9099;47.958;11.366;2024-02-26T14:32:42;13.40;99.90
17948;DHT22;9099;47.958;11.366;2024-02-26T14:35:10;13.30;99.90
17948;DHT22;9099;47.958;11.366;2024-02-26T14:37:37;13.20;99.90
17948;DHT22;9099;47.958;11.366;2024-02-26T14:40:05;13.20;99.90
17948;DHT22;9099;47.958;11.366;2024-02-26T14:42:32;13.30;99.90
17948;DHT22;9099;47.958;11.366;2024-02-26T14:44:59;13.40;99.90
17948;DHT22;9099;47.958;11.366;2024-02-26T14:47:27;13.40;99.90
17948;DHT22;9099;47.958;11.366;2024-02-26T14:49:54;13.40;99.90
17948;DHT22;9099;47.958;11.366;2024-02-26T14:52:21;13.40;99.90
17948;DHT22;9099;47.958;11.366;2024-02-26T14:54:48;13.40;99.90
17948;DHT22;9099;47.958;11.366;2024-02-26T14:57:16;13.50;99.90
17948;DHT22;9099;47.958;11.366;2024-02-26T14:59:44;13.60;99.90
17948;DHT22;9099;47.958;11.366;2024-02-26T15:02:11;13.70;99.90
17948;DHT22;9099;47.958;11.366;2024-02-26T15:04:39;13.70;99.90
17948;DHT22;9099;47.958;11.366;2024-02-26T15:07:06;13.70;99.90
17948;DHT22;9099;47.958;11.366;2024-02-26T15:09:33;13.70;99.90
17948;DHT22;9099;47.958;11.366;2024-02-26T15:12:01;13.70;99.90
17948;DHT22;9099;47.958;11.366;2024-02-26T15:14:28;13.70;99.90
17948;DHT22;9099;47.958;11.366;2024-02-26T15:16:55;13.70;99.90
17948;DHT22;9099;47.958;11.366;2024-02-26T15:19:22;13.60;99.90
17948;DHT22;9099;47.958;11.366;2024-02-26T15:21:50;13.50;99.90
17948;DHT22;9099;47.958;11.366;2024-02-26T15:24:17;13.50;99.90
17948;DHT22;9099;47.958;11.366;2024-02-26T15:26:44;13.40;99.90
17948;DHT22;9099;47.958;11.366;2024-02-26T15:29:11;13.40;99.90
17948;DHT22;9099;47.958;11.366;2024-02-26T15:31:38;13.30;99.90
17948;DHT22;9099;47.958;11.366;2024-02-26T15:34:05;13.30;99.90
17948;DHT22;9099;47.958;11.366;2024-02-26T15:36:33;13.20;99.90
17948;DHT22;9099;47.958;11.366;2024-02-26T15:39:01;13.10;99.90
17948;DHT22;9099;47.958;11.366;2024-02-26T15:41:30;13.00;99.90
17948;DHT22;9099;47.958;11.366;2024-02-26T15:43:57;12.80;99.90
17948;DHT22;9099;47.958;11.366;2024-02-26T15:46:26;12.70;99.90